Time;durP1;ratioP1;P1;durP2;ratioP2;P2;SDS_P1;SDS_P2;PMS_P1;PMS_P2;Temp;Humidity;BMP_temperature;BMP_pressure;BME280_temperature;BME280_humidity;BME280_pressure;Samples;Min_cycle;Max_cycle;Signal;HPM_P1;HPM_P2
2021/11/25 00:00:29;;;;;;;15.83;7.70;;;;;;;-145.18;100.00;60484.78;5060707;28;20649;-73
2021/11/25 00:02:54;;;;;;;17.60;7.67;;;;;;;-145.18;100.00;60484.78;5060851;28;20048;-73
2021/11/25 00:05:20;;;;;;;14.50;7.20;;;;;;;-145.18;100.00;60484.78;5061679;28;20665;-74
2021/11/25 00:07:46;;;;;;;15.70;8.03;;;;;;;-145.18;100.00;60484.78;5061793;28;20458;-74
2021/11/25 00:10:11;;;;;;;15.20;6.80;;;;;;;-145.18;100.00;60484.78;5060360;28;20052;-74
2021/11/25 00:12:37;;;;;;;15.93;7.17;;;;;;;-145.18;100.00;60484.78;5060673;28;20047;-74
2021/11/25 00:15:04;;;;;;;16.20;7.57;;;;;;;-145.18;100.00;60484.78;5056491;28;20029;-74
2021/11/25 00:17:30;;;;;;;16.67;7.03;;;;;;;-145.18;100.00;60484.78;5061492;28;20074;-74
2021/11/25 00:19:56;;;;;;;15.83;6.80;;;;;;;-145.18;100.00;60484.78;5060721;28;20032;-74
2021/11/25 00:22:21;;;;;;;15.80;7.03;;;;;;;-145.18;100.00;60484.78;5061428;28;20034;-74
2021/11/25 00:24:46;;;;;;;14.90;7.10;;;;;;;-145.18;100.00;60484.78;5059651;28;20032;-74
2021/11/25 00:27:12;;;;;;;13.47;6.30;;;;;;;-145.18;100.00;60484.78;5060786;28;20024;-74
2021/11/25 00:29:37;;;;;;;14.20;6.93;;;;;;;-145.18;100.00;60484.78;5060607;28;20030;-74
2021/11/25 00:32:03;;;;;;;14.67;6.67;;;;;;;-145.18;100.00;60484.78;5053640;28;20629;-74
2021/11/25 00:34:29;;;;;;;15.10;6.63;;;;;;;-145.18;100.00;60484.78;5059377;28;20564;-74
2021/11/25 00:36:54;;;;;;;14.63;6.57;;;;;;;-145.18;100.00;60484.78;5058336;28;20681;-74
2021/11/25 00:39:20;;;;;;;15.23;7.20;;;;;;;-145.18;100.00;60484.78;5060561;28;20021;-74
2021/11/25 00:41:47;;;;;;;14.33;6.60;;;;;;;-145.18;100.00;60484.78;5061095;28;20029;-73
2021/11/25 00:44:14;;;;;;;16.80;7.90;;;;;;;-145.18;100.00;60484.78;5060407;28;20021;-74
2021/11/25 00:46:39;;;;;;;15.93;7.87;;;;;;;-145.18;100.00;60484.78;5058908;28;20140;-74
2021/11/25 00:49:05;;;;;;;18.60;7.57;;;;;;;-145.18;100.00;60484.78;5058760;28;20191;-74
2021/11/25 00:51:30;;;;;;;16.23;7.73;;;;;;;-145.18;100.00;60484.78;5060331;28;20043;-74
2021/11/25 00:53:56;;;;;;;15.93;7.47;;;;;;;-145.18;100.00;60484.78;5060748;28;20029;-74
2021/11/25 00:56:21;;;;;;;15.73;7.40;;;;;;;-145.18;100.00;60484.78;5060224;28;20031;-74
2021/11/25 00:58:46;;;;;;;16.57;7.43;;;;;;;-145.18;100.00;60484.78;5059407;28;20110;-74
2021/11/25 01:01:12;;;;;;;20.53;8.23;;;;;;;-145.18;100.00;60484.78;5060732;28;20020;-74
2021/11/25 01:03:37;;;;;;;17.40;8.60;;;;;;;-145.18;100.00;60484.78;5060949;28;20055;-74
2021/11/25 01:06:03;;;;;;;15.73;7.83;;;;;;;-145.18;100.00;60484.78;5058582;28;20052;-74
2021/11/25 01:08:28;;;;;;;16.53;7.77;;;;;;;-145.18;100.00;60484.78;5060675;28;20771;-74
2021/11/25 01:10:54;;;;;;;18.63;7.50;;;;;;;-145.18;100.00;60484.78;5060597;28;20187;-74
2021/11/25 01:13:20;;;;;;;18.27;8.57;;;;;;;-145.18;100.00;60484.78;5062833;28;20028;-74
2021/11/25 01:15:46;;;;;;;20.43;7.73;;;;;;;-145.18;100.00;60484.78;5064509;28;20423;-74
2021/11/25 01:18:15;;;;;;;18.47;7.80;;;;;;;-145.18;100.00;60484.78;5064996;28;20093;-74
2021/11/25 01:20:43;;;;;;;16.30;8.30;;;;;;;-145.18;100.00;60484.78;5064161;28;20404;-73
2021/11/25 01:23:14;;;;;;;15.20;7.40;;;;;;;-145.18;100.00;60484.78;5064776;28;20036;-73
2021/11/25 01:25:40;;;;;;;15.70;6.70;;;;;;;-145.18;100.00;60484.78;5063136;28;20062;-73
2021/11/25 01:28:12;;;;;;;17.30;7.83;;;;;;;-145.18;100.00;60484.78;5068547;28;20024;-73
2021/11/25 01:30:38;;;;;;;17.75;7.45;;;;;;;-145.18;100.00;60484.78;5060408;28;20520;-73
2021/11/25 01:33:03;;;;;;;19.93;8.90;;;;;;;-145.18;100.00;60484.78;5062161;28;20036;-73
2021/11/25 01:35:28;;;;;;;16.40;7.30;;;;;;;-145.18;100.00;60484.78;5064458;28;20024;-73
2021/11/25 01:37:54;;;;;;;18.20;8.10;;;;;;;-145.18;100.00;60484.78;5063450;28;20032;-73
2021/11/25 01:40:19;;;;;;;25.43;9.13;;;;;;;-145.18;100.00;60484.78;5064420;28;20020;-73
2021/11/25 01:42:45;;;;;;;16.37;8.57;;;;;;;-145.18;100.00;60484.78;5063508;28;20030;-73
2021/11/25 01:45:13;;;;;;;20.63;9.07;;;;;;;-145.18;100.00;60484.78;5064270;28;20473;-73
2021/11/25 01:47:44;;;;;;;17.87;7.60;;;;;;;-145.18;100.00;60484.78;5062847;28;20606;-73
2021/11/25 01:50:10;;;;;;;19.03;8.63;;;;;;;-145.18;100.00;60484.78;5064115;28;20034;-73
2021/11/25 01:52:36;;;;;;;17.73;8.63;;;;;;;-145.18;100.00;60484.78;5069983;28;20469;-73
2021/11/25 01:55:01;;;;;;;21.73;9.03;;;;;;;-145.18;100.00;60484.78;5063848;28;20305;-73
2021/11/25 01:57:27;;;;;;;20.50;8.73;;;;;;;-145.18;100.00;60484.78;5063724;28;20029;-73
2021/11/25 01:59:53;;;;;;;20.07;8.53;;;;;;;-145.18;100.00;60484.78;5063639;28;20039;-73
2021/11/25 02:02:18;;;;;;;20.03;8.47;;;;;;;-145.18;100.00;60484.78;5063464;28;20028;-73
2021/11/25 02:04:44;;;;;;;19.57;8.70;;;;;;;-145.18;100.00;60484.78;5052316;22;20137;-69
2021/11/25 02:07:09;;;;;;;21.43;8.80;;;;;;;-145.18;100.00;60484.78;5041387;28;20033;-75
2021/11/25 02:09:35;;;;;;;23.07;9.77;;;;;;;-145.18;100.00;60484.78;5044122;28;20520;-69
2021/11/25 02:12:00;;;;;;;22.80;9.50;;;;;;;-145.18;100.00;60484.78;5035900;28;20056;-69
2021/11/25 02:14:25;;;;;;;23.07;9.07;;;;;;;-145.18;100.00;60484.78;5042941;28;20029;-69
2021/11/25 02:16:52;;;;;;;20.97;8.47;;;;;;;-145.18;100.00;60484.78;5040514;28;20063;-71
2021/11/25 02:19:18;;;;;;;22.07;8.23;;;;;;;-145.18;100.00;60484.78;5043628;28;20089;-71
2021/11/25 02:21:44;;;;;;;20.63;9.20;;;;;;;-145.18;100.00;60484.78;5039423;28;20358;-71
2021/11/25 02:24:09;;;;;;;22.23;10.07;;;;;;;-145.18;100.00;60484.78;5043304;28;20104;-71
2021/11/25 02:26:35;;;;;;;20.93;9.27;;;;;;;-145.18;100.00;60484.78;5043161;28;20429;-71
2021/11/25 02:29:03;;;;;;;19.03;8.00;;;;;;;-145.18;100.00;60484.78;5043078;28;20039;-71
2021/11/25 02:31:28;;;;;;;19.80;8.97;;;;;;;-145.18;100.00;60484.78;5042262;28;20459;-71
2021/11/25 02:33:54;;;;;;;23.23;9.80;;;;;;;-145.18;100.00;60484.78;5042750;28;20036;-71
2021/11/25 02:36:19;;;;;;;24.57;9.90;;;;;;;-145.18;100.00;60484.78;5039808;28;20060;-71
2021/11/25 02:38:45;;;;;;;22.67;9.73;;;;;;;-145.18;100.00;60484.78;5042671;28;20033;-71
2021/11/25 02:41:11;;;;;;;20.00;9.50;;;;;;;-145.18;100.00;60484.78;5043056;28;20040;-71
2021/11/25 02:43:36;;;;;;;23.93;10.27;;;;;;;-145.18;100.00;60484.78;5043113;28;20059;-71
2021/11/25 02:46:07;;;;;;;24.27;10.20;;;;;;;-145.18;100.00;60484.78;5042133;28;20041;-69
2021/11/25 02:48:43;;;;;;;21.23;9.30;;;;;;;-145.18;100.00;60484.78;5042246;28;20040;-71
2021/11/25 02:51:12;;;;;;;26.40;10.27;;;;;;;-145.18;100.00;60484.78;5042044;28;20381;-71
2021/11/25 02:53:37;;;;;;;23.40;10.30;;;;;;;-145.18;100.00;60484.78;5042207;28;20036;-71
2021/11/25 02:56:05;;;;;;;23.07;9.87;;;;;;;-145.18;100.00;60484.78;5042814;28;20387;-71
2021/11/25 02:58:30;;;;;;;20.63;9.33;;;;;;;-145.18;100.00;60484.78;5043395;28;20696;-69
2021/11/25 03:01:01;;;;;;;23.77;8.83;;;;;;;-145.18;100.00;60484.78;5041787;28;20445;-69
2021/11/25 03:03:26;;;;;;;26.30;9.83;;;;;;;-145.18;100.00;60484.78;5041525;28;20033;-69
2021/11/25 03:05:52;;;;;;;20.67;8.33;;;;;;;-145.18;100.00;60484.78;5041938;28;21062;-69
2021/11/25 03:08:20;;;;;;;26.57;9.90;;;;;;;-145.18;100.00;60484.78;5043101;28;20036;-69
2021/11/25 03:10:59;;;;;;;22.87;10.07;;;;;;;-145.18;100.00;60484.78;5047655;28;20820;-69
2021/11/25 03:13:25;;;;;;;23.37;10.70;;;;;;;-145.18;100.00;60484.78;5042608;28;20275;-69
2021/11/25 03:15:52;;;;;;;20.70;9.23;;;;;;;-145.18;100.00;60484.78;5041159;28;20275;-69
2021/11/25 03:18:18;;;;;;;25.27;10.50;;;;;;;-145.18;100.00;60484.78;5040338;28;20268;-69
2021/11/25 03:20:47;;;;;;;26.30;10.57;;;;;;;-145.18;100.00;60484.78;5036117;28;20281;-69
2021/11/25 03:23:15;;;;;;;29.90;12.00;;;;;;;-145.18;100.00;60484.78;5043174;28;20687;-69
2021/11/25 03:25:43;;;;;;;22.97;10.17;;;;;;;-145.18;100.00;60484.78;5044023;28;20279;-69
2021/11/25 03:28:08;;;;;;;22.77;9.70;;;;;;;-145.18;100.00;60484.78;5042150;28;20287;-68
2021/11/25 03:30:36;;;;;;;21.33;9.63;;;;;;;-145.18;100.00;60484.78;5041448;28;20287;-68
2021/11/25 03:33:03;;;;;;;26.63;10.13;;;;;;;-145.18;100.00;60484.78;5041313;28;20044;-68
2021/11/25 03:35:29;;;;;;;22.37;8.77;;;;;;;-145.18;100.00;60484.78;5041171;28;20832;-68
2021/11/25 03:37:54;;;;;;;23.53;9.40;;;;;;;-145.18;100.00;60484.78;5041576;28;20302;-68
2021/11/25 03:40:20;;;;;;;23.63;10.03;;;;;;;-145.18;100.00;60484.78;5041718;28;20044;-69
2021/11/25 03:42:46;;;;;;;24.00;10.00;;;;;;;-145.18;100.00;60484.78;5042385;28;20106;-69
2021/11/25 03:45:11;;;;;;;24.27;10.63;;;;;;;-145.18;100.00;60484.78;5041703;28;20029;-69
2021/11/25 03:47:37;;;;;;;23.87;10.27;;;;;;;-145.18;100.00;60484.78;5041269;28;20124;-69
2021/11/25 03:50:04;;;;;;;25.13;10.80;;;;;;;-145.18;100.00;60484.78;5041808;28;20718;-69
2021/11/25 03:52:30;;;;;;;23.10;10.23;;;;;;;-145.18;100.00;60484.78;5041032;28;20114;-69
2021/11/25 03:54:55;;;;;;;22.70;10.33;;;;;;;-145.18;100.00;60484.78;5041966;28;20025;-69
2021/11/25 03:57:22;;;;;;;25.70;9.67;;;;;;;-145.18;100.00;60484.78;5041285;28;20037;-69
2021/11/25 03:59:48;;;;;;;24.77;11.20;;;;;;;-145.18;100.00;60484.78;5042304;28;20614;-69
2021/11/25 04:02:13;;;;;;;25.00;11.07;;;;;;;-145.18;100.00;60484.78;5041033;28;20279;-69
2021/11/25 04:04:39;;;;;;;25.87;11.00;;;;;;;-145.18;100.00;60484.78;5041104;28;20061;-69
2021/11/25 04:07:04;;;;;;;26.83;10.93;;;;;;;-145.18;100.00;60484.78;5040509;28;20037;-69
2021/11/25 04:09:30;;;;;;;23.83;11.43;;;;;;;-145.18;100.00;60484.78;5039854;28;20661;-69
2021/11/25 04:11:55;;;;;;;25.63;10.50;;;;;;;-145.18;100.00;60484.78;5041229;28;20029;-69
2021/11/25 04:14:20;;;;;;;25.27;10.93;;;;;;;-145.18;100.00;60484.78;5041167;28;20071;-69
2021/11/25 04:16:46;;;;;;;25.70;11.30;;;;;;;-145.18;100.00;60484.78;5037667;28;20111;-69
2021/11/25 04:19:11;;;;;;;27.43;10.90;;;;;;;-145.18;100.00;60484.78;5040999;28;20033;-69
2021/11/25 04:21:37;;;;;;;27.10;11.10;;;;;;;-145.18;100.00;60484.78;5040540;28;20064;-69
2021/11/25 04:24:03;;;;;;;25.07;10.53;;;;;;;-145.18;100.00;60484.78;5039255;28;20104;-69
2021/11/25 04:26:28;;;;;;;32.33;13.33;;;;;;;-145.18;100.00;60484.78;5040119;28;20028;-69
2021/11/25 04:28:53;;;;;;;25.33;11.50;;;;;;;-145.18;100.00;60484.78;5037538;28;20032;-69
2021/11/25 04:36:51;;;;;;;28.53;12.93;;;;;;;-145.18;100.00;60484.78;5034948;28;20451;-69
2021/11/25 04:39:16;;;;;;;31.07;13.77;;;;;;;-145.18;100.00;60484.78;5040194;28;20043;-69
2021/11/25 04:41:41;;;;;;;29.20;12.70;;;;;;;-145.18;100.00;60484.78;5039935;28;20029;-69
2021/11/25 04:44:07;;;;;;;30.90;11.80;;;;;;;-145.18;100.00;60484.78;5036716;28;20048;-69
2021/11/25 04:46:34;;;;;;;30.93;12.97;;;;;;;-145.18;100.00;60484.78;5036974;28;20488;-69
2021/11/25 04:49:00;;;;;;;31.03;13.67;;;;;;;-145.18;100.00;60484.78;5038622;28;20094;-69
2021/11/25 04:51:25;;;;;;;31.37;13.17;;;;;;;-145.18;100.00;60484.78;5040359;28;20046;-69
2021/11/25 04:53:51;;;;;;;30.90;12.90;;;;;;;-145.18;100.00;60484.78;5039831;28;20032;-69
2021/11/25 04:56:16;;;;;;;31.30;12.67;;;;;;;-145.18;100.00;60484.78;5040518;28;20033;-69
2021/11/25 04:58:41;;;;;;;32.77;13.70;;;;;;;-145.18;100.00;60484.78;5040000;28;20624;-69
2021/11/25 05:01:07;;;;;;;28.87;12.20;;;;;;;-145.18;100.00;60484.78;5040416;28;20055;-69
2021/11/25 05:03:32;;;;;;;28.93;13.37;;;;;;;-145.18;100.00;60484.78;5040154;28;20460;-69
2021/11/25 05:05:58;;;;;;;31.20;13.37;;;;;;;-145.18;100.00;60484.78;5040656;28;20060;-69
2021/11/25 05:08:23;;;;;;;31.70;12.90;;;;;;;-145.18;100.00;60484.78;5040071;28;20361;-69
2021/11/25 05:10:49;;;;;;;33.10;13.50;;;;;;;-145.18;100.00;60484.78;5039403;28;20045;-69
2021/11/25 05:13:15;;;;;;;29.97;13.53;;;;;;;-145.18;100.00;60484.78;5034910;28;20032;-69
2021/11/25 05:15:41;;;;;;;33.17;13.27;;;;;;;-145.18;100.00;60484.78;5044816;28;20028;-69
2021/11/25 05:18:07;;;;;;;32.30;14.33;;;;;;;-145.18;100.00;60484.78;5042945;28;20457;-70
2021/11/25 05:20:33;;;;;;;29.33;12.63;;;;;;;-145.18;100.00;60484.78;5040048;28;20425;-70
2021/11/25 05:22:59;;;;;;;32.60;13.50;;;;;;;-145.18;100.00;60484.78;5040582;28;20029;-70
2021/11/25 05:25:25;;;;;;;31.10;13.70;;;;;;;-145.18;100.00;60484.78;5039234;28;20102;-70
2021/11/25 05:27:51;;;;;;;33.27;14.17;;;;;;;-145.18;100.00;60484.78;5040528;28;20040;-69
2021/11/25 05:30:18;;;;;;;31.10;13.77;;;;;;;-145.18;100.00;60484.78;5039119;28;20066;-69
2021/11/25 05:32:45;;;;;;;35.53;13.93;;;;;;;-145.18;100.00;60484.78;5039960;28;20029;-69
2021/11/25 05:35:11;;;;;;;37.20;14.80;;;;;;;-145.18;100.00;60484.78;5037949;28;20028;-70
2021/11/25 05:37:37;;;;;;;36.10;14.20;;;;;;;-145.18;100.00;60484.78;5040589;28;20397;-69
2021/11/25 05:40:04;;;;;;;34.20;14.00;;;;;;;-145.18;100.00;60484.78;5040302;28;20275;-70
2021/11/25 05:42:31;;;;;;;29.73;13.33;;;;;;;-145.18;100.00;60484.78;5042323;28;20039;-70
2021/11/25 05:44:57;;;;;;;30.57;14.37;;;;;;;-145.18;100.00;60484.78;5035949;28;20029;-70
2021/11/25 05:47:23;;;;;;;30.70;13.17;;;;;;;-145.18;100.00;60484.78;5040136;28;20040;-70
2021/11/25 05:49:48;;;;;;;33.60;13.90;;;;;;;-145.18;100.00;60484.78;5039971;28;20097;-70
2021/11/25 05:52:14;;;;;;;35.93;15.37;;;;;;;-145.18;100.00;60484.78;5039867;28;20548;-69
2021/11/25 05:54:39;;;;;;;36.03;15.13;;;;;;;-145.18;100.00;60484.78;5039283;28;20032;-70
2021/11/25 05:57:05;;;;;;;35.73;15.87;;;;;;;-145.18;100.00;60484.78;5041296;28;20451;-70
2021/11/25 05:59:30;;;;;;;35.50;14.83;;;;;;;-145.18;100.00;60484.78;5043561;28;20036;-70
2021/11/25 06:01:55;;;;;;;36.63;14.87;;;;;;;-145.18;100.00;60484.78;5037674;28;20375;-70
2021/11/25 06:04:21;;;;;;;36.37;14.80;;;;;;;-145.18;100.00;60484.78;5042236;28;20130;-70
2021/11/25 06:06:46;;;;;;;35.37;14.67;;;;;;;-145.18;100.00;60484.78;5040470;28;20051;-70
2021/11/25 06:09:12;;;;;;;32.80;14.57;;;;;;;-145.18;100.00;60484.78;5042238;28;20028;-70
2021/11/25 06:11:37;;;;;;;41.53;16.23;;;;;;;-145.18;100.00;60484.78;5042471;28;20383;-70
2021/11/25 06:14:02;;;;;;;32.93;15.13;;;;;;;-145.18;100.00;60484.78;5043383;28;20033;-70
2021/11/25 06:16:28;;;;;;;33.73;14.73;;;;;;;-145.18;100.00;60484.78;5040899;28;20032;-70
2021/11/25 06:18:53;;;;;;;37.27;15.83;;;;;;;-145.18;100.00;60484.78;5040577;28;20112;-70
2021/11/25 06:21:19;;;;;;;35.43;15.43;;;;;;;-145.18;100.00;60484.78;5039762;28;20554;-69
2021/11/25 06:23:45;;;;;;;33.23;14.37;;;;;;;-145.18;100.00;60484.78;5033624;28;20029;-69
2021/11/25 06:26:11;;;;;;;34.47;15.60;;;;;;;-145.18;100.00;60484.78;5038886;28;20392;-70
2021/11/25 06:28:36;;;;;;;35.07;14.90;;;;;;;-145.18;100.00;60484.78;5035739;28;20025;-70
2021/11/25 06:31:02;;;;;;;33.17;15.60;;;;;;;-145.18;100.00;60484.78;5039637;28;20052;-70
2021/11/25 06:33:27;;;;;;;36.10;14.57;;;;;;;-145.18;100.00;60484.78;5042271;28;20108;-70
2021/11/25 06:35:53;;;;;;;40.63;16.83;;;;;;;-145.18;100.00;60484.78;5039658;28;20025;-69
2021/11/25 06:38:19;;;;;;;36.23;15.67;;;;;;;-145.18;100.00;60484.78;5040736;28;20028;-70
2021/11/25 06:40:46;;;;;;;34.73;15.70;;;;;;;-145.18;100.00;60484.78;5038814;28;20457;-70
2021/11/25 06:43:12;;;;;;;38.20;15.80;;;;;;;-145.18;100.00;60484.78;5042607;28;20286;-70
2021/11/25 06:45:38;;;;;;;35.47;16.13;;;;;;;-145.18;100.00;60484.78;5042747;28;20656;-69
2021/11/25 06:48:04;;;;;;;36.47;15.00;;;;;;;-145.18;100.00;60484.78;5041106;28;20405;-69
2021/11/25 06:50:30;;;;;;;36.43;15.50;;;;;;;-145.18;100.00;60484.78;5036986;28;20810;-69
2021/11/25 06:52:56;;;;;;;40.53;17.73;;;;;;;-145.18;100.00;60484.78;5016610;28;20041;-70
2021/11/25 06:55:23;;;;;;;40.43;17.13;;;;;;;-145.18;100.00;60484.78;5031950;28;20374;-69
2021/11/25 06:57:50;;;;;;;35.83;15.20;;;;;;;-145.18;100.00;60484.78;5036182;28;20317;-69
2021/11/25 07:00:19;;;;;;;37.43;16.33;;;;;;;-145.18;100.00;60484.78;5036861;28;20279;-69
2021/11/25 07:02:45;;;;;;;35.03;16.07;;;;;;;-145.18;100.00;60484.78;5029150;28;20033;-70
2021/11/25 07:05:11;;;;;;;35.73;15.67;;;;;;;-145.18;100.00;60484.78;5036887;28;20299;-70
2021/11/25 07:07:38;;;;;;;38.57;16.23;;;;;;;-145.18;100.00;60484.78;5036224;28;20033;-70
2021/11/25 07:10:06;;;;;;;40.97;17.93;;;;;;;-145.18;100.00;60484.78;5036037;28;20283;-70
2021/11/25 07:12:31;;;;;;;40.80;17.43;;;;;;;-145.18;100.00;60484.78;5035562;28;20310;-70
2021/11/25 07:14:57;;;;;;;38.63;16.07;;;;;;;-145.18;100.00;60484.78;5035188;28;20835;-70
2021/11/25 07:17:22;;;;;;;39.47;16.53;;;;;;;-145.18;100.00;60484.78;5035148;28;20086;-70
2021/11/25 07:19:48;;;;;;;40.93;16.90;;;;;;;-145.18;100.00;60484.78;5033483;28;20485;-70
2021/11/25 07:22:13;;;;;;;41.90;16.20;;;;;;;-145.18;100.00;60484.78;5036731;28;20036;-70
2021/11/25 07:24:39;;;;;;;39.00;16.90;;;;;;;-145.18;100.00;60484.78;5035950;28;20136;-70
2021/11/25 07:27:04;;;;;;;42.60;17.10;;;;;;;-145.18;100.00;60484.78;5035604;28;20043;-70
2021/11/25 07:29:30;;;;;;;40.20;16.83;;;;;;;-145.18;100.00;60484.78;5035777;28;20032;-70
2021/11/25 07:31:56;;;;;;;39.10;17.07;;;;;;;-145.18;100.00;60484.78;5035703;28;20115;-70
2021/11/25 07:34:21;;;;;;;40.67;17.67;;;;;;;-145.18;100.00;60484.78;5035631;28;20036;-70
2021/11/25 07:36:47;;;;;;;38.90;15.77;;;;;;;-145.18;100.00;60484.78;5035113;28;20111;-70
2021/11/25 07:39:12;;;;;;;36.70;15.23;;;;;;;-145.18;100.00;60484.78;5034435;28;20035;-70
2021/11/25 07:41:38;;;;;;;42.80;17.60;;;;;;;-145.18;100.00;60484.78;5039164;28;20039;-70
2021/11/25 07:44:05;;;;;;;42.03;16.10;;;;;;;-145.18;100.00;60484.78;5036411;28;20033;-70
2021/11/25 07:46:30;;;;;;;39.47;16.17;;;;;;;-145.18;100.00;60484.78;5036083;28;20405;-70
2021/11/25 07:48:58;;;;;;;44.67;18.17;;;;;;;-145.18;100.00;60484.78;5024102;28;20036;-70
2021/11/25 07:51:23;;;;;;;39.13;16.60;;;;;;;-145.18;100.00;60484.78;5035363;28;20106;-70
2021/11/25 07:53:49;;;;;;;45.33;17.80;;;;;;;-145.18;100.00;60484.78;5035282;28;20033;-69
2021/11/25 07:56:14;;;;;;;41.77;17.20;;;;;;;-145.18;100.00;60484.78;5034211;28;20029;-70
2021/11/25 07:58:39;;;;;;;41.53;16.37;;;;;;;-145.18;100.00;60484.78;5033869;28;20036;-70
2021/11/25 08:01:05;;;;;;;40.23;17.07;;;;;;;-145.18;100.00;60484.78;5033441;28;20382;-70
2021/11/25 08:03:30;;;;;;;40.07;16.40;;;;;;;-145.18;100.00;60484.78;5030917;28;20033;-70
2021/11/25 08:05:56;;;;;;;37.90;15.40;;;;;;;-145.18;100.00;60484.78;5035325;28;20096;-70
2021/11/25 08:08:21;;;;;;;38.50;16.47;;;;;;;-145.18;100.00;60484.78;5033455;28;20708;-70
2021/11/25 08:10:47;;;;;;;43.13;17.57;;;;;;;-145.18;100.00;60484.78;5029091;28;20037;-70
2021/11/25 08:13:12;;;;;;;39.80;16.30;;;;;;;-145.18;100.00;60484.78;5029700;28;20086;-70
2021/11/25 08:15:38;;;;;;;34.23;14.27;;;;;;;-145.18;100.00;60484.78;5032990;28;20032;-69
2021/11/25 08:18:04;;;;;;;37.80;15.23;;;;;;;-145.18;100.00;60484.78;5036256;28;20524;-70
2021/11/25 08:20:30;;;;;;;38.13;15.37;;;;;;;-145.18;100.00;60484.78;5034810;28;20033;-70
2021/11/25 08:22:56;;;;;;;38.53;15.83;;;;;;;-145.18;100.00;60484.78;5029830;28;20033;-70
2021/11/25 08:25:23;;;;;;;36.03;15.67;;;;;;;-145.18;100.00;60484.78;5036143;28;20040;-70
2021/11/25 08:27:51;;;;;;;37.60;14.80;;;;;;;-145.18;100.00;60484.78;5035906;28;20471;-70
2021/11/25 08:30:17;;;;;;;33.60;15.50;;;;;;;-145.18;100.00;60484.78;5035173;28;20025;-70
2021/11/25 08:32:43;;;;;;;38.37;16.40;;;;;;;-145.18;100.00;60484.78;5035698;28;20036;-70
2021/11/25 08:35:10;;;;;;;44.27;17.30;;;;;;;-145.18;100.00;60484.78;5027635;28;20033;-70
2021/11/25 08:37:38;;;;;;;38.53;16.23;;;;;;;-145.18;100.00;60484.78;5029220;28;20032;-70
2021/11/25 08:40:04;;;;;;;40.63;16.77;;;;;;;-145.18;100.00;60484.78;5028623;28;20037;-70
2021/11/25 08:42:30;;;;;;;39.73;16.17;;;;;;;-145.18;100.00;60484.78;5033916;28;20040;-70
2021/11/25 08:44:56;;;;;;;36.17;15.50;;;;;;;-145.18;100.00;60484.78;5026682;28;20515;-70
2021/11/25 08:47:22;;;;;;;34.60;14.77;;;;;;;-145.18;100.00;60484.78;5023554;28;20033;-70
2021/11/25 08:49:47;;;;;;;31.77;14.17;;;;;;;-145.18;100.00;60484.78;5026093;28;20039;-70
2021/11/25 08:52:12;;;;;;;35.10;14.80;;;;;;;-145.18;100.00;60484.78;5023197;28;20025;-70
2021/11/25 08:54:38;;;;;;;39.30;15.50;;;;;;;-145.18;100.00;60484.78;5024315;28;20047;-70
2021/11/25 08:57:04;;;;;;;29.87;13.13;;;;;;;-145.18;100.00;60484.78;5028042;28;20040;-70
2021/11/25 08:59:29;;;;;;;33.13;14.77;;;;;;;-145.18;100.00;60484.78;5028028;28;20033;-70
2021/11/25 09:01:55;;;;;;;36.97;14.90;;;;;;;-145.18;100.00;60484.78;5026147;28;20048;-70
2021/11/25 09:04:20;;;;;;;35.53;15.00;;;;;;;-145.18;100.00;60484.78;5026835;28;20128;-70
2021/11/25 09:06:46;;;;;;;25.87;12.13;;;;;;;-145.18;100.00;60484.78;5025318;28;20436;-70
2021/11/25 09:09:11;;;;;;;28.03;12.23;;;;;;;-145.18;100.00;60484.78;5027239;28;20662;-70
2021/11/25 09:11:38;;;;;;;26.00;12.27;;;;;;;-145.18;100.00;60484.78;5027884;28;20029;-70
2021/11/25 09:14:04;;;;;;;29.60;11.90;;;;;;;-145.18;100.00;60484.78;5029294;28;20462;-70
2021/11/25 09:16:30;;;;;;;35.80;15.80;;;;;;;-145.18;100.00;60484.78;5033006;28;20039;-70
2021/11/25 09:18:55;;;;;;;40.97;15.47;;;;;;;-145.18;100.00;60484.78;5022298;28;20052;-70
2021/11/25 09:21:22;;;;;;;31.43;14.03;;;;;;;-145.18;100.00;60484.78;5021770;28;20040;-70
2021/11/25 09:23:48;;;;;;;31.87;14.97;;;;;;;-145.18;100.00;60484.78;5023125;28;20064;-70
2021/11/25 09:26:16;;;;;;;33.10;14.20;;;;;;;-145.18;100.00;60484.78;5028574;28;20033;-70
2021/11/25 09:28:41;;;;;;;30.67;13.30;;;;;;;-145.18;100.00;60484.78;5026703;28;21022;-70
2021/11/25 09:31:13;;;;;;;32.33;13.97;;;;;;;-145.18;100.00;60484.78;5025852;28;20029;-70
2021/11/25 09:33:39;;;;;;;35.25;13.63;;;;;;;-145.18;100.00;60484.78;5037156;28;20024;-70
2021/11/25 09:36:04;;;;;;;32.60;14.30;;;;;;;-145.18;100.00;60484.78;5037867;28;20051;-70
2021/11/25 09:38:29;;;;;;;31.43;14.03;;;;;;;-145.18;100.00;60484.78;5038951;28;20039;-70
2021/11/25 09:40:55;;;;;;;34.90;14.10;;;;;;;-145.18;100.00;60484.78;5034858;28;20103;-70
2021/11/25 09:43:21;;;;;;;30.30;12.27;;;;;;;-145.18;100.00;60484.78;5037522;28;20159;-70
2021/11/25 09:45:51;;;;;;;31.30;14.40;;;;;;;-145.18;100.00;60484.78;5038060;28;20048;-70
2021/11/25 09:48:19;;;;;;;31.73;13.20;;;;;;;-145.18;100.00;60484.78;5032793;28;20029;-70
2021/11/25 09:50:46;;;;;;;29.80;13.60;;;;;;;-145.18;100.00;60484.78;5034915;28;20040;-70
2021/11/25 09:53:14;;;;;;;28.50;13.17;;;;;;;-145.18;100.00;60484.78;5035382;28;20080;-70
2021/11/25 09:55:43;;;;;;;28.43;13.37;;;;;;;-145.18;100.00;60484.78;5037671;28;20029;-70
2021/11/25 09:58:13;;;;;;;32.33;13.23;;;;;;;-145.18;100.00;60484.78;5033731;28;20673;-70
2021/11/25 10:00:42;;;;;;;29.63;13.70;;;;;;;-145.18;100.00;60484.78;5031079;28;20543;-70
2021/11/25 10:03:08;;;;;;;28.13;11.03;;;;;;;-145.18;100.00;60484.78;5033430;28;20033;-70
2021/11/25 10:05:33;;;;;;;26.47;12.43;;;;;;;-145.18;100.00;60484.78;5030273;28;20042;-70
2021/11/25 10:07:59;;;;;;;27.63;11.20;;;;;;;-145.18;100.00;60484.78;5038080;28;20116;-70
2021/11/25 10:10:34;;;;;;;26.87;11.27;;;;;;;-145.18;100.00;60484.78;5036500;28;20029;-70
2021/11/25 10:13:12;;;;;;;26.60;12.43;;;;;;;-145.18;100.00;60484.78;5037847;28;20025;-70
2021/11/25 10:15:39;;;;;;;25.40;11.63;;;;;;;-145.18;100.00;60484.78;5024928;28;20040;-70
2021/11/25 10:18:14;;;;;;;24.73;12.07;;;;;;;-145.18;100.00;60484.78;5037097;28;20033;-70
2021/11/25 10:20:43;;;;;;;27.07;12.30;;;;;;;-145.18;100.00;60484.78;5034925;28;20037;-70
2021/11/25 10:23:17;;;;;;;26.77;13.53;;;;;;;-145.18;100.00;60484.78;5037156;28;20083;-70
2021/11/25 10:25:59;;;;;;;25.40;11.93;;;;;;;-145.18;100.00;60484.78;5040642;28;20082;-70
2021/11/25 10:28:40;;;;;;;23.70;10.98;;;;;;;-145.18;100.00;60484.78;5033834;28;20029;-70
2021/11/25 10:31:13;;;;;;;25.13;11.33;;;;;;;-145.18;100.00;60484.78;5038040;28;20062;-70
2021/11/25 10:33:53;;;;;;;28.30;13.10;;;;;;;-145.18;100.00;60484.78;5026601;28;20036;-70
2021/11/25 10:39:27;;;;;;;23.77;11.47;;;;;;;-145.18;100.00;60484.78;5031928;28;20481;-70
2021/11/25 10:41:59;;;;;;;25.77;11.60;;;;;;;-145.18;100.00;60484.78;5031218;28;20067;-70
2021/11/25 10:44:24;;;;;;;27.67;13.40;;;;;;;-145.18;100.00;60484.78;5035729;28;20469;-70
2021/11/25 10:46:59;;;;;;;29.50;12.93;;;;;;;-145.18;100.00;60484.78;5035198;28;20406;-70
2021/11/25 10:50:02;;;;;;;30.90;13.00;;;;;;;-145.18;100.00;60484.78;5031713;28;20452;-70
2021/11/25 10:52:31;;;;;;;30.50;13.67;;;;;;;-145.18;100.00;60484.78;5033575;28;20242;-70
2021/11/25 10:55:19;;;;;;;28.60;13.27;;;;;;;-145.18;100.00;60484.78;5033487;28;20476;-70
2021/11/25 10:57:46;;;;;;;26.67;12.87;;;;;;;-145.18;100.00;60484.78;5027112;28;20071;-70
2021/11/25 11:00:14;;;;;;;28.23;12.50;;;;;;;-145.18;100.00;60484.78;5033843;28;20037;-70
2021/11/25 11:02:41;;;;;;;27.57;12.57;;;;;;;-145.18;100.00;60484.78;5032639;28;20156;-70